Time;durP1;ratioP1;P1;durP2;ratioP2;P2;SDS_P1;SDS_P2;PMS_P1;PMS_P2;Temp;Humidity;BMP_temperature;BMP_pressure;BME280_temperature;BME280_humidity;BME280_pressure;Samples;Min_cycle;Max_cycle;Signal;HPM_P1;HPM_P2
2021/06/12 00:00:46;;;;;;;4.85;3.35;;;;;;;;;;4915733;29;20072;-79
2021/06/12 00:03:13;;;;;;;4.43;3.47;;;;;;;;;;4934977;28;20066;-80
2021/06/12 00:05:39;;;;;;;5.47;3.80;;;;;;;;;;4950134;28;20059;-80
2021/06/12 00:08:06;;;;;;;5.05;3.47;;;;;;;;;;4948521;28;20104;-81
2021/06/12 00:10:34;;;;;;;6.25;3.63;;;;;;;;;;4949288;28;20094;-80
2021/06/12 00:13:01;;;;;;;4.82;3.70;;;;;;;;;;4955004;28;20062;-80
2021/06/12 00:15:28;;;;;;;4.32;3.47;;;;;;;;;;4945757;28;20062;-81
2021/06/12 00:17:55;;;;;;;5.93;3.65;;;;;;;;;;4943675;28;20385;-81
2021/06/12 00:20:27;;;;;;;6.05;3.47;;;;;;;;;;4956422;28;20436;-81
2021/06/12 00:22:53;;;;;;;4.90;3.40;;;;;;;;;;4948322;28;20070;-81
2021/06/12 00:25:22;;;;;;;5.60;3.58;;;;;;;;;;4943373;28;20047;-80
2021/06/12 00:27:49;;;;;;;8.15;3.72;;;;;;;;;;4945926;28;20059;-78
2021/06/12 00:30:18;;;;;;;5.70;3.30;;;;;;;;;;4947241;28;20082;-81
2021/06/12 00:32:45;;;;;;;6.82;3.67;;;;;;;;;;4946730;28;20039;-80
2021/06/12 00:35:12;;;;;;;4.95;3.35;;;;;;;;;;4954553;28;20113;-80
2021/06/12 00:37:39;;;;;;;6.65;3.60;;;;;;;;;;4946437;28;20063;-81
2021/06/12 00:40:06;;;;;;;5.15;3.33;;;;;;;;;;4946234;28;20069;-81
2021/06/12 00:42:33;;;;;;;5.72;3.40;;;;;;;;;;4944656;28;20568;-81
2021/06/12 00:44:59;;;;;;;5.28;3.40;;;;;;;;;;4947623;28;20204;-80
2021/06/12 00:47:25;;;;;;;5.38;3.17;;;;;;;;;;4949716;28;20062;-78
2021/06/12 00:49:52;;;;;;;6.78;3.40;;;;;;;;;;4945722;28;20676;-80
2021/06/12 00:52:21;;;;;;;4.50;3.25;;;;;;;;;;4947792;28;20042;-82
2021/06/12 00:54:47;;;;;;;4.85;3.50;;;;;;;;;;4946178;28;20059;-81
2021/06/12 00:57:14;;;;;;;6.72;3.50;;;;;;;;;;4947237;28;20577;-81
2021/06/12 00:59:40;;;;;;;7.10;2.95;;;;;;;;;;4944058;28;20081;-81
2021/06/12 01:02:07;;;;;;;5.40;2.95;;;;;;;;;;4942329;28;20039;-80
2021/06/12 01:04:33;;;;;;;4.72;2.90;;;;;;;;;;4929652;28;20062;-81
2021/06/12 01:07:02;;;;;;;7.25;3.75;;;;;;;;;;4932047;28;20081;-81
2021/06/12 01:09:28;;;;;;;3.83;2.90;;;;;;;;;;4937879;28;20071;-79
2021/06/12 01:11:58;;;;;;;6.18;2.80;;;;;;;;;;4917823;28;20067;-78
2021/06/12 01:14:26;;;;;;;5.88;2.75;;;;;;;;;;4929856;28;20118;-79
2021/06/12 01:17:01;;;;;;;4.70;2.72;;;;;;;;;;4934100;28;20117;-79
2021/06/12 01:19:30;;;;;;;5.93;2.92;;;;;;;;;;4933160;28;20503;-79
2021/06/12 01:21:59;;;;;;;5.97;3.20;;;;;;;;;;4929233;28;20585;-79
2021/06/12 01:24:44;;;;;;;4.75;2.80;;;;;;;;;;4945980;28;20059;-79
2021/06/12 01:27:14;;;;;;;5.65;2.65;;;;;;;;;;4956153;28;20058;-79
2021/06/12 01:29:57;;;;;;;4.03;2.83;;;;;;;;;;4949381;28;20070;-80
2021/06/12 01:32:25;;;;;;;5.30;2.70;;;;;;;;;;4943181;28;20540;-80
2021/06/12 01:34:52;;;;;;;4.95;2.80;;;;;;;;;;4942640;28;20066;-79
2021/06/12 01:37:20;;;;;;;5.03;2.53;;;;;;;;;;4950620;28;20067;-80
2021/06/12 01:39:47;;;;;;;4.32;2.47;;;;;;;;;;4948074;28;20075;-79
2021/06/12 01:42:13;;;;;;;5.07;2.65;;;;;;;;;;4941872;28;20490;-79
2021/06/12 01:44:41;;;;;;;5.40;2.95;;;;;;;;;;4946823;28;20180;-81
2021/06/12 01:47:08;;;;;;;3.63;2.42;;;;;;;;;;4947815;28;20058;-80
2021/06/12 01:49:36;;;;;;;5.97;2.72;;;;;;;;;;4948538;28;20578;-80
2021/06/12 01:52:03;;;;;;;3.05;2.50;;;;;;;;;;4931923;28;20067;-81
2021/06/12 01:54:30;;;;;;;5.35;2.55;;;;;;;;;;4954208;28;20066;-81
2021/06/12 01:56:57;;;;;;;6.03;2.72;;;;;;;;;;4945719;28;20051;-79
2021/06/12 01:59:24;;;;;;;3.50;2.53;;;;;;;;;;4936166;28;20059;-80
2021/06/12 02:01:52;;;;;;;3.05;2.25;;;;;;;;;;4944454;28;20069;-81
2021/06/12 02:04:19;;;;;;;3.97;2.38;;;;;;;;;;4946122;28;20390;-81
2021/06/12 02:06:46;;;;;;;3.45;2.67;;;;;;;;;;4946367;28;20059;-81
2021/06/12 02:09:15;;;;;;;4.30;2.47;;;;;;;;;;4942856;28;20051;-82
2021/06/12 02:11:41;;;;;;;5.57;2.80;;;;;;;;;;4946524;28;20047;-81
2021/06/12 02:14:08;;;;;;;4.63;2.50;;;;;;;;;;4953379;28;20133;-80
2021/06/12 02:16:36;;;;;;;6.25;2.65;;;;;;;;;;4945891;28;20103;-81
2021/06/12 02:19:02;;;;;;;5.28;2.50;;;;;;;;;;4948183;28;20063;-81
2021/06/12 02:21:32;;;;;;;4.57;2.63;;;;;;;;;;4934703;28;20059;-82
2021/06/12 02:24:00;;;;;;;6.00;2.53;;;;;;;;;;4945765;28;20059;-81
2021/06/12 02:26:28;;;;;;;4.65;2.63;;;;;;;;;;4944592;28;20117;-81
2021/06/12 02:28:58;;;;;;;4.88;2.47;;;;;;;;;;4944354;28;20071;-81
2021/06/12 02:31:31;;;;;;;3.55;2.28;;;;;;;;;;4951696;28;20087;-81
2021/06/12 02:33:57;;;;;;;3.53;2.20;;;;;;;;;;4938799;28;20502;-81
2021/06/12 02:36:24;;;;;;;3.88;2.33;;;;;;;;;;4953425;28;20751;-81
2021/06/12 02:38:52;;;;;;;4.45;2.50;;;;;;;;;;4917265;28;20102;-80
2021/06/12 02:41:20;;;;;;;5.82;2.72;;;;;;;;;;4946737;28;20126;-80
2021/06/12 02:43:46;;;;;;;3.95;2.20;;;;;;;;;;4952849;28;20066;-80
2021/06/12 02:46:14;;;;;;;7.35;2.83;;;;;;;;;;4947161;28;20557;-81
2021/06/12 02:48:43;;;;;;;5.78;2.30;;;;;;;;;;4960215;28;20071;-80
2021/06/12 02:51:10;;;;;;;6.07;2.30;;;;;;;;;;4930286;28;20117;-80
2021/06/12 02:53:42;;;;;;;5.47;2.55;;;;;;;;;;4930501;28;20126;-80
2021/06/12 02:56:08;;;;;;;4.07;2.53;;;;;;;;;;4928086;28;20070;-80
2021/06/12 02:58:36;;;;;;;5.72;2.60;;;;;;;;;;4938296;28;20086;-80
2021/06/12 03:01:05;;;;;;;5.60;2.40;;;;;;;;;;4947794;28;20110;-80
2021/06/12 03:03:33;;;;;;;5.80;2.60;;;;;;;;;;4952304;28;20118;-80
2021/06/12 03:06:00;;;;;;;6.95;2.55;;;;;;;;;;4946571;28;20061;-81
2021/06/12 03:08:32;;;;;;;5.03;2.63;;;;;;;;;;4951046;28;20766;-81
2021/06/12 03:11:00;;;;;;;6.20;2.85;;;;;;;;;;4948780;28;20091;-81
2021/06/12 03:13:27;;;;;;;6.75;2.55;;;;;;;;;;4923016;28;20039;-81
2021/06/12 03:15:55;;;;;;;5.45;2.78;;;;;;;;;;4960240;28;20066;-80
2021/06/12 03:18:22;;;;;;;5.38;2.70;;;;;;;;;;4950323;28;20063;-81
2021/06/12 03:20:49;;;;;;;5.78;2.90;;;;;;;;;;4948852;28;20082;-81
2021/06/12 03:23:17;;;;;;;5.32;2.40;;;;;;;;;;4949937;28;20612;-80
2021/06/12 03:25:43;;;;;;;5.82;2.33;;;;;;;;;;4958812;28;20119;-82
2021/06/12 03:28:09;;;;;;;6.15;2.60;;;;;;;;;;4949389;28;20067;-81
2021/06/12 03:30:36;;;;;;;7.88;2.63;;;;;;;;;;4965858;28;20836;-82
2021/06/12 03:33:04;;;;;;;4.30;2.70;;;;;;;;;;4951097;28;20063;-81
2021/06/12 03:35:31;;;;;;;5.75;2.60;;;;;;;;;;4950097;28;20086;-81
2021/06/12 03:37:58;;;;;;;4.82;2.40;;;;;;;;;;4947123;28;20055;-81
2021/06/12 03:40:24;;;;;;;4.70;2.50;;;;;;;;;;4948087;28;20391;-80
2021/06/12 03:42:52;;;;;;;4.75;2.50;;;;;;;;;;4947889;28;20063;-79
2021/06/12 03:45:22;;;;;;;6.43;2.60;;;;;;;;;;4948702;28;20062;-81
2021/06/12 03:47:50;;;;;;;3.78;2.22;;;;;;;;;;4951038;28;20055;-80
2021/06/12 03:50:17;;;;;;;5.30;2.17;;;;;;;;;;4946973;28;20063;-79
2021/06/12 03:52:44;;;;;;;8.18;2.78;;;;;;;;;;4949260;28;20138;-79
2021/06/12 03:55:11;;;;;;;4.55;2.35;;;;;;;;;;4946283;28;20070;-79
2021/06/12 03:57:38;;;;;;;6.70;2.45;;;;;;;;;;4949302;28;20059;-81
2021/06/12 04:00:11;;;;;;;3.55;2.45;;;;;;;;;;4947376;28;20082;-80
2021/06/12 04:02:37;;;;;;;5.45;2.25;;;;;;;;;;4946167;28;20059;-80
2021/06/12 04:05:03;;;;;;;4.00;2.40;;;;;;;;;;4955252;28;20082;-80
2021/06/12 04:07:30;;;;;;;4.45;2.30;;;;;;;;;;4955333;28;20032;-81
2021/06/12 04:09:56;;;;;;;6.18;2.33;;;;;;;;;;4948334;28;20066;-81
2021/06/12 04:12:23;;;;;;;6.38;2.47;;;;;;;;;;4941562;28;20066;-81
2021/06/12 04:14:50;;;;;;;4.90;2.03;;;;;;;;;;4953683;28;20063;-77
2021/06/12 04:17:16;;;;;;;5.20;2.50;;;;;;;;;;4945218;28;20446;-80
2021/06/12 04:19:43;;;;;;;5.47;2.50;;;;;;;;;;4957338;28;20432;-80
2021/06/12 04:22:09;;;;;;;5.70;2.20;;;;;;;;;;4949668;28;20071;-81
2021/06/12 04:24:38;;;;;;;4.97;2.30;;;;;;;;;;4951989;28;20445;-81
2021/06/12 04:27:05;;;;;;;5.20;2.47;;;;;;;;;;4954709;28;20063;-80
2021/06/12 04:29:31;;;;;;;5.78;2.40;;;;;;;;;;4916992;28;20070;-81
2021/06/12 04:31:58;;;;;;;5.30;2.22;;;;;;;;;;4934475;28;20063;-80
2021/06/12 04:34:24;;;;;;;4.95;2.40;;;;;;;;;;4928697;28;20056;-81
2021/06/12 04:36:51;;;;;;;4.13;1.95;;;;;;;;;;4926805;28;20507;-80
2021/06/12 04:39:17;;;;;;;4.15;2.20;;;;;;;;;;4950585;28;20058;-80
2021/06/12 04:41:44;;;;;;;7.93;2.17;;;;;;;;;;4930845;28;20050;-82
2021/06/12 04:44:11;;;;;;;4.53;2.10;;;;;;;;;;4935716;28;20102;-81
2021/06/12 04:46:39;;;;;;;3.75;2.08;;;;;;;;;;4948042;28;20118;-82
2021/06/12 04:49:08;;;;;;;3.80;1.90;;;;;;;;;;4947912;28;20484;-83
2021/06/12 04:51:34;;;;;;;3.92;1.85;;;;;;;;;;4958583;28;20134;-82
2021/06/12 04:54:01;;;;;;;5.25;2.00;;;;;;;;;;4946461;28;20058;-83
2021/06/12 04:56:27;;;;;;;4.80;2.30;;;;;;;;;;4943915;28;20063;-83
2021/06/12 04:58:54;;;;;;;4.00;2.15;;;;;;;;;;4924813;28;20063;-81
2021/06/12 05:01:20;;;;;;;6.35;2.00;;;;;;;;;;4928801;28;20072;-82
2021/06/12 05:03:47;;;;;;;5.85;2.00;;;;;;;;;;4936373;28;20070;-82
2021/06/12 05:06:13;;;;;;;4.60;2.03;;;;;;;;;;4948427;28;20051;-82
2021/06/12 05:08:40;;;;;;;4.88;1.80;;;;;;;;;;4954764;28;20055;-81
2021/06/12 05:11:06;;;;;;;4.65;1.75;;;;;;;;;;4953647;28;20078;-82
2021/06/12 05:13:34;;;;;;;7.45;2.10;;;;;;;;;;4949199;28;20078;-82
2021/06/12 05:16:01;;;;;;;5.72;2.33;;;;;;;;;;4955120;28;20071;-82
2021/06/12 05:18:40;;;;;;;5.68;1.88;;;;;;;;;;4947535;28;20059;-83
2021/06/12 05:21:07;;;;;;;7.72;2.00;;;;;;;;;;4949869;28;20071;-82
2021/06/12 05:23:34;;;;;;;3.67;1.80;;;;;;;;;;4944151;28;20518;-83
2021/06/12 05:26:01;;;;;;;5.30;1.90;;;;;;;;;;4942709;28;20062;-83
2021/06/12 05:28:28;;;;;;;5.70;1.85;;;;;;;;;;4945432;28;20515;-83
2021/06/12 05:30:54;;;;;;;3.72;2.00;;;;;;;;;;4946034;28;20063;-82
2021/06/12 05:33:22;;;;;;;4.10;2.05;;;;;;;;;;4951434;28;20047;-82
2021/06/12 05:35:49;;;;;;;4.32;1.77;;;;;;;;;;4950466;28;20102;-82
2021/06/12 05:38:16;;;;;;;5.55;1.80;;;;;;;;;;4933162;28;20486;-82
2021/06/12 05:40:43;;;;;;;4.43;1.60;;;;;;;;;;4947249;28;20117;-82
2021/06/12 05:43:10;;;;;;;4.78;2.30;;;;;;;;;;4948995;28;20483;-82
2021/06/12 05:45:36;;;;;;;4.70;1.77;;;;;;;;;;4934909;28;20059;-81
2021/06/12 05:48:03;;;;;;;5.43;1.98;;;;;;;;;;4937465;28;20067;-82
2021/06/12 05:50:29;;;;;;;3.00;1.70;;;;;;;;;;4948853;28;20090;-82
2021/06/12 05:52:56;;;;;;;5.78;1.92;;;;;;;;;;4951509;28;20038;-79
2021/06/12 05:55:25;;;;;;;5.60;1.92;;;;;;;;;;4947878;28;20051;-82
2021/06/12 05:57:52;;;;;;;5.15;1.92;;;;;;;;;;4946296;28;20074;-87
2021/06/12 06:00:18;;;;;;;3.03;1.75;;;;;;;;;;4946795;28;20074;-81
2021/06/12 06:02:45;;;;;;;5.97;2.30;;;;;;;;;;4942740;28;20090;-81
2021/06/12 06:05:12;;;;;;;5.93;2.00;;;;;;;;;;4941169;28;20601;-81
2021/06/12 06:07:38;;;;;;;6.57;2.17;;;;;;;;;;4947752;28;20070;-81
2021/06/12 06:10:05;;;;;;;6.40;2.17;;;;;;;;;;4945110;28;20047;-81
2021/06/12 06:12:33;;;;;;;4.53;2.05;;;;;;;;;;4940982;28;20035;-81
2021/06/12 06:15:00;;;;;;;3.97;1.73;;;;;;;;;;4946199;28;20614;-79
2021/06/12 06:17:26;;;;;;;5.05;1.90;;;;;;;;;;4944533;28;20055;-80
2021/06/12 06:19:52;;;;;;;4.70;1.80;;;;;;;;;;4946165;28;20070;-77
2021/06/12 06:22:21;;;;;;;5.28;1.67;;;;;;;;;;4944949;28;20051;-79
2021/06/12 06:24:48;;;;;;;4.22;1.52;;;;;;;;;;4941866;28;20077;-79
2021/06/12 06:27:14;;;;;;;5.00;1.73;;;;;;;;;;4945293;28;20035;-80
2021/06/12 06:29:41;;;;;;;4.65;1.52;;;;;;;;;;4946154;28;20066;-79
2021/06/12 06:32:07;;;;;;;6.90;1.80;;;;;;;;;;4927066;28;20040;-80
2021/06/12 06:34:34;;;;;;;4.35;1.63;;;;;;;;;;4950202;28;20031;-79
2021/06/12 06:37:00;;;;;;;3.83;1.70;;;;;;;;;;4947426;28;20066;-79
2021/06/12 06:39:27;;;;;;;3.50;1.50;;;;;;;;;;4948669;28;20070;-80
2021/06/12 06:41:53;;;;;;;3.28;1.40;;;;;;;;;;4951083;28;20047;-79
2021/06/12 06:44:22;;;;;;;4.78;1.50;;;;;;;;;;4945027;28;20061;-79
2021/06/12 06:46:49;;;;;;;4.18;1.65;;;;;;;;;;4947789;28;20051;-85
2021/06/12 06:49:15;;;;;;;5.43;1.60;;;;;;;;;;4945768;28;20051;-88
2021/06/12 06:51:42;;;;;;;6.72;1.80;;;;;;;;;;4947067;28;20055;-86
2021/06/12 06:54:08;;;;;;;4.18;1.55;;;;;;;;;;4944949;28;20063;-85
2021/06/12 06:56:35;;;;;;;8.60;2.03;;;;;;;;;;4948746;28;20078;-85
2021/06/12 06:59:01;;;;;;;4.85;1.65;;;;;;;;;;4948261;28;20073;-84
2021/06/12 07:01:29;;;;;;;10.55;1.58;;;;;;;;;;4948319;28;20066;-84
2021/06/12 07:03:55;;;;;;;8.05;1.50;;;;;;;;;;4946859;28;20059;-85
2021/06/12 07:06:22;;;;;;;6.28;1.70;;;;;;;;;;4945946;28;20669;-85
2021/06/12 07:08:48;;;;;;;5.72;1.42;;;;;;;;;;4947002;28;20086;-85
2021/06/12 07:11:15;;;;;;;8.13;1.52;;;;;;;;;;4948372;28;20091;-85
2021/06/12 07:13:42;;;;;;;6.22;1.48;;;;;;;;;;4943611;28;20075;-85
2021/06/12 07:16:08;;;;;;;4.93;1.48;;;;;;;;;;4945134;28;20063;-85
2021/06/12 07:18:34;;;;;;;6.85;1.65;;;;;;;;;;4945972;28;20067;-87
2021/06/12 07:21:01;;;;;;;6.03;1.58;;;;;;;;;;4954964;28;20093;-85
2021/06/12 07:23:27;;;;;;;5.88;1.80;;;;;;;;;;4959133;28;20070;-87
2021/06/12 07:25:54;;;;;;;5.20;1.63;;;;;;;;;;4948024;28;20058;-84
2021/06/12 07:28:22;;;;;;;5.80;1.67;;;;;;;;;;4950680;28;20069;-86
2021/06/12 07:30:49;;;;;;;6.82;2.15;;;;;;;;;;4951038;28;20055;-85
2021/06/12 07:33:16;;;;;;;6.18;2.00;;;;;;;;;;4948538;28;20067;-86
2021/06/12 07:35:43;;;;;;;8.30;2.25;;;;;;;;;;4958153;28;20062;-86
2021/06/12 07:38:10;;;;;;;3.85;1.52;;;;;;;;;;4947630;28;20774;-86
2021/06/12 07:40:36;;;;;;;6.40;1.83;;;;;;;;;;4951749;28;20531;-86
2021/06/12 07:43:03;;;;;;;5.32;1.60;;;;;;;;;;4954282;28;20078;-85
2021/06/12 07:45:30;;;;;;;8.77;1.75;;;;;;;;;;4952627;28;20408;-86
2021/06/12 07:47:56;;;;;;;7.13;2.10;;;;;;;;;;4949415;28;20067;-85
2021/06/12 07:50:23;;;;;;;5.90;2.03;;;;;;;;;;4949512;28;20065;-85
2021/06/12 07:52:49;;;;;;;7.47;1.73;;;;;;;;;;4946293;28;20136;-84
2021/06/12 07:55:16;;;;;;;7.70;2.50;;;;;;;;;;4950611;28;20598;-81
2021/06/12 07:57:42;;;;;;;7.68;1.80;;;;;;;;;;4948116;28;20069;-80
2021/06/12 08:00:09;;;;;;;5.95;2.00;;;;;;;;;;4957411;28;20066;-80
2021/06/12 08:02:37;;;;;;;7.00;2.03;;;;;;;;;;4944098;28;20059;-80
2021/06/12 08:05:04;;;;;;;10.68;2.35;;;;;;;;;;4945243;28;20082;-79
2021/06/12 08:07:30;;;;;;;8.43;2.50;;;;;;;;;;4954632;28;20062;-80
2021/06/12 08:09:58;;;;;;;10.48;2.58;;;;;;;;;;4942005;28;20106;-78
2021/06/12 08:12:25;;;;;;;10.35;2.28;;;;;;;;;;4947970;28;20047;-80
2021/06/12 08:14:51;;;;;;;10.18;2.22;;;;;;;;;;4947893;28;20576;-75
2021/06/12 08:17:18;;;;;;;12.13;2.35;;;;;;;;;;4947180;28;20043;-78
2021/06/12 08:19:44;;;;;;;9.70;1.95;;;;;;;;;;4947576;28;20069;-78
2021/06/12 08:22:13;;;;;;;6.43;2.25;;;;;;;;;;4947801;28;20763;-78
2021/06/12 08:24:40;;;;;;;8.57;1.85;;;;;;;;;;4949566;28;20062;-79
2021/06/12 08:27:07;;;;;;;9.30;2.20;;;;;;;;;;4946785;28;20051;-79
2021/06/12 08:29:34;;;;;;;6.82;1.90;;;;;;;;;;4946569;28;20066;-77
2021/06/12 08:32:00;;;;;;;8.73;1.90;;;;;;;;;;4945396;28;20082;-79
2021/06/12 08:34:27;;;;;;;18.40;2.80;;;;;;;;;;4955237;28;20134;-82
2021/06/12 08:36:53;;;;;;;11.57;2.47;;;;;;;;;;4947151;28;20039;-79
2021/06/12 08:39:20;;;;;;;6.90;2.10;;;;;;;;;;4946316;28;20459;-79
2021/06/12 08:41:46;;;;;;;7.65;2.30;;;;;;;;;;4946153;28;20070;-77
2021/06/12 08:44:13;;;;;;;11.73;2.30;;;;;;;;;;4945769;28;20071;-78
2021/06/12 08:46:41;;;;;;;7.65;2.00;;;;;;;;;;4933904;28;20071;-78
2021/06/12 08:49:07;;;;;;;7.65;2.17;;;;;;;;;;4931202;28;20063;-78
2021/06/12 08:51:34;;;;;;;7.07;1.92;;;;;;;;;;4947785;28;20071;-78
2021/06/12 08:54:01;;;;;;;5.90;2.00;;;;;;;;;;4945547;28;20074;-77
2021/06/12 08:56:27;;;;;;;6.50;2.15;;;;;;;;;;4947694;28;20051;-78
2021/06/12 08:58:54;;;;;;;6.00;1.90;;;;;;;;;;4951392;28;20059;-79
2021/06/12 09:01:21;;;;;;;6.15;2.25;;;;;;;;;;4954057;28;20058;-81
2021/06/12 09:03:47;;;;;;;8.27;2.15;;;;;;;;;;4941823;28;20584;-80
2021/06/12 09:06:20;;;;;;;6.18;2.00;;;;;;;;;;4947169;28;20063;-79
2021/06/12 09:08:49;;;;;;;6.05;2.15;;;;;;;;;;4947506;28;20223;-79
2021/06/12 09:11:17;;;;;;;8.63;2.38;;;;;;;;;;4933908;28;20055;-79
2021/06/12 09:13:52;;;;;;;5.32;1.80;;;;;;;;;;4921423;28;20068;-79
2021/06/12 09:16:38;;;;;;;6.70;1.88;;;;;;;;;;4924096;28;20044;-79
2021/06/12 09:19:06;;;;;;;6.32;2.00;;;;;;;;;;4919787;28;20067;-78
2021/06/12 09:21:36;;;;;;;7.88;2.33;;;;;;;;;;4923118;28;20127;-79
2021/06/12 09:24:04;;;;;;;11.63;2.58;;;;;;;;;;4927604;28;20056;-78
2021/06/12 09:26:44;;;;;;;5.75;1.95;;;;;;;;;;4946649;28;20074;-78
2021/06/12 09:29:12;;;;;;;9.05;2.47;;;;;;;;;;4944197;28;20082;-77
2021/06/12 09:31:49;;;;;;;10.10;2.58;;;;;;;;;;4946861;28;20063;-77
2021/06/12 09:34:18;;;;;;;6.38;2.40;;;;;;;;;;4944036;28;20067;-76
2021/06/12 09:36:45;;;;;;;7.05;1.95;;;;;;;;;;4942199;28;20515;-78
2021/06/12 09:39:19;;;;;;;7.32;2.58;;;;;;;;;;4937359;28;20450;-78
2021/06/12 09:41:49;;;;;;;7.53;2.40;;;;;;;;;;4953222;28;20110;-78
2021/06/12 09:44:34;;;;;;;9.85;2.40;;;;;;;;;;4944066;28;20055;-78
2021/06/12 09:47:01;;;;;;;7.28;2.47;;;;;;;;;;4940965;28;20062;-76
2021/06/12 09:49:32;;;;;;;8.20;2.70;;;;;;;;;;4944628;28;20035;-79
2021/06/12 09:52:00;;;;;;;8.68;2.60;;;;;;;;;;4942549;28;20125;-78
2021/06/12 09:54:34;;;;;;;6.88;2.15;;;;;;;;;;4948730;28;20063;-77
2021/06/12 09:57:00;;;;;;;6.57;2.35;;;;;;;;;;4942309;28;20055;-87
2021/06/12 09:59:27;;;;;;;7.35;2.80;;;;;;;;;;4948844;28;20055;-86
2021/06/12 10:01:53;;;;;;;11.85;2.92;;;;;;;;;;4942501;28;20062;-82
2021/06/12 10:04:22;;;;;;;12.00;3.42;;;;;;;;;;4945011;28;20043;-83
2021/06/12 10:06:48;;;;;;;10.23;3.35;;;;;;;;;;4946774;28;20063;-81
2021/06/12 10:09:17;;;;;;;12.18;2.95;;;;;;;;;;4943886;28;20114;-82
2021/06/12 10:11:43;;;;;;;6.10;2.72;;;;;;;;;;4945785;28;20075;-83
2021/06/12 10:14:10;;;;;;;9.15;2.92;;;;;;;;;;4950323;28;20074;-82
2021/06/12 10:16:47;;;;;;;8.32;2.92;;;;;;;;;;4951477;28;20150;-83
2021/06/12 10:19:18;;;;;;;8.07;2.75;;;;;;;;;;4948344;28;20082;-83
2021/06/12 10:21:46;;;;;;;13.10;3.07;;;;;;;;;;4950385;28;20066;-83
2021/06/12 10:24:12;;;;;;;7.43;3.10;;;;;;;;;;4951049;28;20437;-82
2021/06/12 10:26:42;;;;;;;9.52;2.97;;;;;;;;;;4955143;28;20035;-82
2021/06/12 10:29:09;;;;;;;9.43;3.03;;;;;;;;;;4957504;28;20043;-83
2021/06/12 10:31:37;;;;;;;5.45;2.72;;;;;;;;;;4962404;28;20055;-84
2021/06/12 10:34:06;;;;;;;10.27;3.28;;;;;;;;;;4958407;28;20158;-84
2021/06/12 10:36:33;;;;;;;8.32;3.22;;;;;;;;;;4957686;28;20039;-82
2021/06/12 10:39:23;;;;;;;8.43;3.15;;;;;;;;;;4951683;28;20052;-83
2021/06/12 10:42:08;;;;;;;8.18;3.28;;;;;;;;;;4930710;28;20143;-83
2021/06/12 10:44:34;;;;;;;8.15;3.22;;;;;;;;;;4939369;28;20063;-83
2021/06/12 10:47:04;;;;;;;9.95;3.20;;;;;;;;;;4943227;28;20078;-83
2021/06/12 10:49:35;;;;;;;10.45;3.05;;;;;;;;;;4941595;28;20058;-83
2021/06/12 10:52:05;;;;;;;9.82;3.30;;;;;;;;;;4953066;28;20046;-83
2021/06/12 10:54:40;;;;;;;10.80;3.45;;;;;;;;;;4957250;28;20507;-83
2021/06/12 10:57:21;;;;;;;5.82;3.20;;;;;;;;;;4946100;28;20507;-82
2021/06/12 10:59:49;;;;;;;6.97;3.13;;;;;;;;;;4950962;28;20509;-82
2021/06/12 11:02:41;;;;;;;6.38;2.75;;;;;;;;;;4947449;28;20062;-81
2021/06/12 11:05:09;;;;;;;7.93;3.20;;;;;;;;;;4948717;28;20063;-83
2021/06/12 11:07:37;;;;;;;7.88;3.40;;;;;;;;;;4948308;28;20593;-83
2021/06/12 11:10:16;;;;;;;6.38;3.20;;;;;;;;;;4956331;28;20474;-84
2021/06/12 11:12:52;;;;;;;7.97;3.30;;;;;;;;;;4951072;28;20417;-83
2021/06/12 11:15:27;;;;;;;5.82;2.72;;;;;;;;;;4951994;28;20262;-83
2021/06/12 11:18:12;;;;;;;6.78;3.10;;;;;;;;;;4952124;28;20071;-82
2021/06/12 11:20:45;;;;;;;8.43;3.33;;;;;;;;;;4946148;28;20067;-83
2021/06/12 11:23:13;;;;;;;8.95;2.92;;;;;;;;;;4955533;28;20066;-83
2021/06/12 11:25:41;;;;;;;6.53;2.67;;;;;;;;;;4950758;28;20109;-83
2021/06/12 11:28:22;;;;;;;6.32;2.50;;;;;;;;;;4934427;28;20425;-83
2021/06/12 11:31:02;;;;;;;;;;;;;;;;;;;;;
2021/06/12 11:33:29;;;;;;;6.90;3.03;;;;;;;;;;4943141;28;20053;-82
2021/06/12 11:35:57;;;;;;;5.65;2.70;;;;;;;;;;4938860;28;20122;-81
2021/06/12 11:38:31;;;;;;;9.45;2.90;;;;;;;;;;4949145;28;20059;-82
2021/06/12 11:40:59;;;;;;;6.60;2.90;;;;;;;;;;4948069;28;20070;-82
2021/06/12 11:43:33;;;;;;;6.55;2.65;;;;;;;;;;4952375;28;20136;-83
2021/06/12 11:46:00;;;;;;;6.55;2.65;;;;;;;;;;4950651;28;20062;-82
2021/06/12 11:48:29;;;;;;;8.07;2.83;;;;;;;;;;4947746;28;20039;-83
2021/06/12 11:51:11;;;;;;;7.32;2.83;;;;;;;;;;4945048;28;20062;-83
2021/06/12 11:53:41;;;;;;;7.55;2.92;;;;;;;;;;4951140;28;20578;-83
2021/06/12 11:56:08;;;;;;;7.20;2.85;;;;;;;;;;4954812;28;20086;-83
2021/06/12 11:58:54;;;;;;;6.70;2.92;;;;;;;;;;4945947;28;20066;-83
2021/06/12 12:01:44;;;;;;;9.43;2.92;;;;;;;;;;4945517;28;20038;-82
2021/06/12 12:04:13;;;;;;;8.02;2.80;;;;;;;;;;4946230;28;20436;-83
2021/06/12 12:06:44;;;;;;;7.97;2.75;;;;;;;;;;4948540;28;21716;-82
2021/06/12 12:09:20;;;;;;;8.27;3.05;;;;;;;;;;4947891;28;20055;-82
2021/06/12 12:11:48;;;;;;;10.35;2.88;;;;;;;;;;4955518;28;20129;-83
2021/06/12 12:14:15;;;;;;;6.78;2.83;;;;;;;;;;4947552;28;20071;-83
2021/06/12 12:16:44;;;;;;;8.23;3.13;;;;;;;;;;4948539;28;20063;-82
2021/06/12 12:19:11;;;;;;;7.00;2.63;;;;;;;;;;4948402;28;20145;-87
2021/06/12 12:21:38;;;;;;;5.93;2.60;;;;;;;;;;4954227;28;20070;-85
2021/06/12 12:24:09;;;;;;;9.50;3.00;;;;;;;;;;4952230;28;20062;-82
2021/06/12 12:26:36;;;;;;;6.40;2.63;;;;;;;;;;4947659;28;20066;-84
2021/06/12 12:29:07;;;;;;;6.72;2.75;;;;;;;;;;4945625;28;20070;-85
2021/06/12 12:31:34;;;;;;;8.20;2.90;;;;;;;;;;4956813;28;20039;-84
2021/06/12 12:34:02;;;;;;;9.10;3.10;;;;;;;;;;4969552;28;20047;-83
2021/06/12 12:36:28;;;;;;;5.28;2.53;;;;;;;;;;4943263;28;20076;-83
2021/06/12 12:38:59;;;;;;;7.07;2.83;;;;;;;;;;4932507;28;20071;-87
2021/06/12 12:41:27;;;;;;;7.25;2.60;;;;;;;;;;4937711;28;20043;-85
2021/06/12 12:44:10;;;;;;;8.63;2.72;;;;;;;;;;4942349;28;20095;-80
2021/06/12 12:46:38;;;;;;;7.43;3.15;;;;;;;;;;4944081;28;20063;-87
2021/06/12 12:49:05;;;;;;;10.95;2.88;;;;;;;;;;4945019;28;20063;-84
2021/06/12 12:51:31;;;;;;;7.63;2.70;;;;;;;;;;4946802;28;20062;-83
2021/06/12 12:54:09;;;;;;;8.65;2.80;;;;;;;;;;4944693;28;20074;-82
2021/06/12 12:56:45;;;;;;;9.23;3.08;;;;;;;;;;4948496;28;20810;-83
2021/06/12 12:59:11;;;;;;;6.18;3.13;;;;;;;;;;4942428;28;20067;-82
2021/06/12 13:01:38;;;;;;;7.65;2.95;;;;;;;;;;4951072;28;20569;-82
2021/06/12 13:04:06;;;;;;;7.90;2.90;;;;;;;;;;4956725;28;20137;-84
2021/06/12 13:06:37;;;;;;;6.82;2.58;;;;;;;;;;4952618;28;20047;-83
2021/06/12 13:09:16;;;;;;;9.25;2.72;;;;;;;;;;4953283;28;20039;-84
2021/06/12 13:11:47;;;;;;;8.77;2.72;;;;;;;;;;4947107;28;20565;-83
2021/06/12 13:14:13;;;;;;;;;;;;;;;;;;4948521;28;20109;-78
2021/06/12 13:16:40;;;;;;;7.35;2.38;;;;;;;;;;4946406;28;19962;-80
2021/06/12 13:19:12;;;;;;;6.90;2.33;;;;;;;;;;4947481;28;20059;-79
2021/06/12 13:21:51;;;;;;;8.77;2.45;;;;;;;;;;4940633;28;20062;-78
2021/06/12 13:24:17;;;;;;;6.03;2.47;;;;;;;;;;4935345;28;20520;-78
2021/06/12 13:26:44;;;;;;;7.65;2.42;;;;;;;;;;4931007;28;20109;-78
2021/06/12 13:29:21;;;;;;;5.07;2.30;;;;;;;;;;4941085;28;20075;-79
2021/06/12 13:31:48;;;;;;;7.28;2.65;;;;;;;;;;4947702;28;20055;-79
2021/06/12 13:34:29;;;;;;;5.75;2.47;;;;;;;;;;4927251;28;20504;-78
2021/06/12 13:36:57;;;;;;;7.07;2.35;;;;;;;;;;4933950;28;20192;-79
2021/06/12 13:39:30;;;;;;;6.35;2.15;;;;;;;;;;4945825;28;20109;-79
2021/06/12 13:42:07;;;;;;;4.00;2.08;;;;;;;;;;4946475;28;20066;-80
2021/06/12 13:44:33;;;;;;;5.30;1.80;;;;;;;;;;4946286;28;20129;-81
2021/06/12 13:47:00;;;;;;;5.18;2.13;;;;;;;;;;4944840;28;20843;-81
2021/06/12 13:49:26;;;;;;;6.13;2.63;;;;;;;;;;4946465;28;20594;-82
2021/06/12 13:51:52;;;;;;;8.77;2.47;;;;;;;;;;4946685;28;20125;-77
2021/06/12 13:54:22;;;;;;;8.38;2.40;;;;;;;;;;4944174;28;20552;-82
2021/06/12 13:56:48;;;;;;;7.03;2.92;;;;;;;;;;4944931;28;20070;-82
2021/06/12 13:59:15;;;;;;;7.05;2.28;;;;;;;;;;4950090;28;20066;-82
2021/06/12 14:01:41;;;;;;;5.57;2.50;;;;;;;;;;4948058;28;20049;-81
2021/06/12 14:04:08;;;;;;;6.25;2.10;;;;;;;;;;4947443;28;20055;-81
2021/06/12 14:06:35;;;;;;;6.20;2.10;;;;;;;;;;4949443;28;20480;-82
2021/06/12 14:09:01;;;;;;;7.65;2.38;;;;;;;;;;4944688;28;20055;-82
2021/06/12 14:11:27;;;;;;;4.60;2.40;;;;;;;;;;4952389;28;20067;-82
2021/06/12 14:13:54;;;;;;;7.57;2.70;;;;;;;;;;4946480;28;20658;-81
2021/06/12 14:16:20;;;;;;;4.88;2.22;;;;;;;;;;4936213;28;20063;-82
2021/06/12 14:18:47;;;;;;;5.22;2.45;;;;;;;;;;4957467;28;20086;-82
2021/06/12 14:21:13;;;;;;;6.95;2.15;;;;;;;;;;4950784;28;20073;-82
2021/06/12 14:23:39;;;;;;;7.00;2.40;;;;;;;;;;4946123;28;20051;-82
2021/06/12 14:26:08;;;;;;;7.80;1.95;;;;;;;;;;4946630;28;20148;-82
2021/06/12 14:28:35;;;;;;;10.30;2.60;;;;;;;;;;4950354;28;20082;-82
2021/06/12 14:31:02;;;;;;;4.97;1.92;;;;;;;;;;4940844;28;20079;-82
2021/06/12 14:33:29;;;;;;;7.03;2.40;;;;;;;;;;4946773;28;20070;-82
2021/06/12 14:35:55;;;;;;;5.93;2.08;;;;;;;;;;4944827;28;20078;-84
2021/06/12 14:38:22;;;;;;;6.70;2.10;;;;;;;;;;4949697;28;20132;-85
2021/06/12 14:40:48;;;;;;;6.95;2.22;;;;;;;;;;4950518;28;20059;-84
2021/06/12 14:43:14;;;;;;;6.55;2.03;;;;;;;;;;4949542;28;20062;-85
2021/06/12 14:45:41;;;;;;;5.78;2.08;;;;;;;;;;4948434;28;20511;-85
2021/06/12 14:48:07;;;;;;;5.07;2.22;;;;;;;;;;4939022;28;20078;-85
2021/06/12 14:50:37;;;;;;;5.75;2.10;;;;;;;;;;4948387;28;20074;-84